createdAt,value
2023-06-11T00:07:44.414Z,16.22
2023-06-11T00:10:13.884Z,16.63
2023-06-11T00:15:25.668Z,16.57
2023-06-11T00:17:53.381Z,16.39
2023-06-11T00:31:31.227Z,16.51
2023-06-11T00:34:01.138Z,16.51
2023-06-11T00:36:29.902Z,16.35
2023-06-11T00:39:04.011Z,16.14
2023-06-11T00:41:33.248Z,16.32
2023-06-11T00:44:01.569Z,15.98
2023-06-11T00:46:29.163Z,16.31
2023-06-11T00:48:57.305Z,16.15
2023-06-11T00:51:32.377Z,16.34
2023-06-11T00:54:01.061Z,16.38
2023-06-11T00:56:34.939Z,16.17
2023-06-11T00:59:03.195Z,16.29
2023-06-11T01:01:33.031Z,16.39
2023-06-11T01:04:03.079Z,16.25
2023-06-11T01:06:35.079Z,15.98
2023-06-11T01:09:05.627Z,16.31
2023-06-11T01:11:38.043Z,16.20
2023-06-11T01:14:07.058Z,15.52
2023-06-11T01:16:46.623Z,15.81
2023-06-11T01:19:34.457Z,15.97
2023-06-11T01:22:10.307Z,15.67
2023-06-11T01:25:00.523Z,15.66
2023-06-11T01:28:09.153Z,15.91
2023-06-11T01:30:39.293Z,15.76
2023-06-11T01:33:09.638Z,15.98
2023-06-11T01:35:50.022Z,15.84
2023-06-11T01:38:23.091Z,16.00
2023-06-11T01:40:56.101Z,15.96
2023-06-11T01:43:24.601Z,15.81
2023-06-11T01:45:53.281Z,15.84
2023-06-11T01:48:25.860Z,15.53
2023-06-11T01:50:53.398Z,15.96
2023-06-11T01:53:21.138Z,15.80
2023-06-11T01:55:49.040Z,15.58
2023-06-11T01:58:19.910Z,15.79
2023-06-11T02:00:48.880Z,15.74
2023-06-11T02:03:17.242Z,15.84
2023-06-11T02:05:45.261Z,15.49
2023-06-11T02:08:13.068Z,15.38
2023-06-11T02:10:45.484Z,15.28
2023-06-11T02:13:18.025Z,15.52
2023-06-11T02:15:45.288Z,15.66
2023-06-11T02:18:13.146Z,15.63
2023-06-11T02:20:41.227Z,15.56
2023-06-11T02:23:14.300Z,15.48
2023-06-11T02:25:40.983Z,15.53
2023-06-11T02:28:09.261Z,15.21
2023-06-11T02:30:37.025Z,14.66
2023-06-11T02:33:07.141Z,15.04
2023-06-11T02:35:37.018Z,15.19
2023-06-11T02:38:29.254Z,15.11
2023-06-11T02:40:57.320Z,14.84
2023-06-11T02:43:25.552Z,14.45
2023-06-11T02:45:53.266Z,14.88
2023-06-11T02:48:21.061Z,14.66
2023-06-11T02:50:49.276Z,14.85
2023-06-11T02:53:17.182Z,14.90
2023-06-11T02:55:44.999Z,14.57
2023-06-11T02:58:13.156Z,14.66
2023-06-11T03:00:41.219Z,14.88
2023-06-11T03:03:09.309Z,14.74
2023-06-11T03:05:41.886Z,14.49
2023-06-11T03:08:09.280Z,14.66
2023-06-11T03:10:38.884Z,14.65
2023-06-11T03:13:11.265Z,14.59
2023-06-11T03:15:39.077Z,14.85
2023-06-11T03:18:07.087Z,14.55
2023-06-11T03:20:42.022Z,14.42
2023-06-11T03:23:12.151Z,14.55
2023-06-11T03:25:46.723Z,14.56
2023-06-11T03:28:20.012Z,14.48
2023-06-11T03:30:47.211Z,14.66
2023-06-11T03:33:15.090Z,14.94
2023-06-11T03:35:48.439Z,14.65
2023-06-11T03:38:23.087Z,14.94
2023-06-11T03:40:51.051Z,15.10
2023-06-11T03:43:19.191Z,15.11
2023-06-11T03:45:49.020Z,14.97
2023-06-11T03:48:17.021Z,14.97
2023-06-11T03:50:45.292Z,14.90
2023-06-11T03:53:13.285Z,14.87
2023-06-11T03:55:41.095Z,15.00
2023-06-11T03:58:09.240Z,14.81
2023-06-11T04:00:37.170Z,15.07
2023-06-11T04:03:05.348Z,15.07
2023-06-11T04:05:39.349Z,15.14
2023-06-11T04:08:09.352Z,14.53
2023-06-11T04:10:42.294Z,14.72
2023-06-11T04:13:11.254Z,15.03
2023-06-11T04:15:39.057Z,15.16
2023-06-11T04:18:12.205Z,14.85
2023-06-11T04:20:45.087Z,14.63
2023-06-11T04:23:13.009Z,14.66
2023-06-11T04:28:38.225Z,15.19
2023-06-11T04:31:05.503Z,15.12
2023-06-11T04:33:37.618Z,14.95
2023-06-11T04:36:08.952Z,15.10
2023-06-11T04:38:38.426Z,15.32
2023-06-11T04:41:07.863Z,14.95
2023-06-11T04:43:37.916Z,14.87
2023-06-11T04:46:07.794Z,15.14
2023-06-11T04:48:39.097Z,15.31
2023-06-11T04:51:07.336Z,15.36
2023-06-11T04:53:39.416Z,15.46
2023-06-11T04:56:14.427Z,15.31
2023-06-11T04:58:43.251Z,15.55
2023-06-11T05:01:13.391Z,15.48
2023-06-11T05:03:41.162Z,15.50
2023-06-11T05:06:14.599Z,15.69
2023-06-11T05:08:47.137Z,15.87
2023-06-11T05:11:15.008Z,15.69
2023-06-11T05:13:43.239Z,15.62
2023-06-11T05:16:11.060Z,15.96
2023-06-11T05:18:44.318Z,16.13
2023-06-11T05:21:12.525Z,16.26
2023-06-11T05:23:45.180Z,16.05
2023-06-11T05:26:15.141Z,16.31
2023-06-11T05:28:52.409Z,16.67
2023-06-11T05:31:22.631Z,16.52
2023-06-11T05:33:51.197Z,16.74
2023-06-11T05:36:19.027Z,16.72
2023-06-11T05:38:47.897Z,17.06
2023-06-11T05:41:15.341Z,17.21
2023-06-11T05:43:43.122Z,17.03
2023-06-11T05:46:11.023Z,17.34
2023-06-11T05:51:31.063Z,17.12
2023-06-11T05:54:07.801Z,17.53
2023-06-11T05:56:37.122Z,17.66
2023-06-11T05:59:05.444Z,17.61
2023-06-11T06:01:34.344Z,17.80
2023-06-11T06:04:03.253Z,18.24
2023-06-11T06:06:32.235Z,18.26
2023-06-11T06:09:05.216Z,17.73
2023-06-11T06:11:32.992Z,18.36
2023-06-11T06:14:01.120Z,18.75
2023-06-11T06:16:29.536Z,19.00
2023-06-11T06:19:06.153Z,18.91
2023-06-11T06:21:33.537Z,19.05
2023-06-11T06:27:02.659Z,18.67
2023-06-11T06:29:34.145Z,18.58
2023-06-11T06:32:03.308Z,19.18
2023-06-11T06:34:31.040Z,19.31
2023-06-11T06:36:59.056Z,19.79
2023-06-11T06:39:27.371Z,18.93
2023-06-11T06:41:55.050Z,19.52
2023-06-11T06:44:33.009Z,19.72
2023-06-11T06:47:01.063Z,19.76
2023-06-11T06:49:29.061Z,19.51
2023-06-11T06:52:02.092Z,19.90
2023-06-11T06:54:38.384Z,20.44
2023-06-11T06:57:12.374Z,20.21
2023-06-11T06:59:41.222Z,20.18
2023-06-11T07:02:12.925Z,20.04
2023-06-11T07:04:50.471Z,20.77
2023-06-11T07:07:19.140Z,20.79
2023-06-11T07:15:27.027Z,20.38
2023-06-11T07:17:55.847Z,20.28
2023-06-11T07:20:54.444Z,21.01
2023-06-11T07:23:28.177Z,21.24
2023-06-11T07:26:01.690Z,21.42
2023-06-11T07:28:31.197Z,21.42
2023-06-11T07:30:59.316Z,21.70
2023-06-11T07:33:27.310Z,22.09
2023-06-11T07:35:57.375Z,22.34
2023-06-11T07:38:30.091Z,22.48
2023-06-11T07:40:57.812Z,21.70
2023-06-11T07:43:33.705Z,22.30
2023-06-11T07:46:10.800Z,22.83
2023-06-11T07:48:43.527Z,22.75
2023-06-11T07:51:24.783Z,22.59
2023-06-11T07:57:07.904Z,22.34
2023-06-11T07:59:39.295Z,23.00
2023-06-11T08:02:07.859Z,23.35
2023-06-11T08:09:12.334Z,22.55
2023-06-11T08:11:42.638Z,22.76
2023-06-11T08:14:11.037Z,23.66
2023-06-11T08:16:39.069Z,24.39
2023-06-11T08:19:06.974Z,23.26
2023-06-11T08:21:35.132Z,23.24
2023-06-11T08:24:45.888Z,23.62
2023-06-11T08:27:18.465Z,23.65
2023-06-11T08:29:46.972Z,23.40
2023-06-11T08:32:15.171Z,23.37
2023-06-11T08:34:43.007Z,23.27
2023-06-11T08:37:11.400Z,23.47
2023-06-11T08:40:03.110Z,23.88
2023-06-11T08:42:31.045Z,24.89
2023-06-11T08:48:37.325Z,25.50
2023-06-11T08:54:02.800Z,25.99
2023-06-11T09:09:36.951Z,25.96
2023-06-11T09:12:10.225Z,26.32
2023-06-11T09:14:39.266Z,26.40
2023-06-11T09:17:07.981Z,26.95
2023-06-11T09:19:46.223Z,26.94
2023-06-11T09:22:20.468Z,25.63
2023-06-11T09:24:51.659Z,26.75
2023-06-11T09:27:22.674Z,26.58
2023-06-11T09:29:55.877Z,27.63
2023-06-11T09:38:31.019Z,27.54
2023-06-11T09:41:02.699Z,27.18
2023-06-11T09:43:32.445Z,27.23
2023-06-11T09:46:03.459Z,27.81
2023-06-11T09:48:31.555Z,25.96
2023-06-11T09:51:02.175Z,26.46
2023-06-11T10:26:41.324Z,28.56
2023-06-11T10:29:47.473Z,27.84
2023-06-11T10:40:09.483Z,28.57
2023-06-11T10:56:00.557Z,29.39
2023-06-11T10:59:01.667Z,28.66
2023-06-11T11:05:55.019Z,29.32
2023-06-11T12:39:09.586Z,29.29
2023-06-11T12:41:37.800Z,29.69
2023-06-11T12:44:11.727Z,29.91
2023-06-11T12:46:39.418Z,30.46
2023-06-11T12:49:07.093Z,30.73
2023-06-11T12:51:36.270Z,30.15
2023-06-11T12:54:03.461Z,30.00
2023-06-11T12:56:36.336Z,30.51
2023-06-11T12:59:08.562Z,30.69
2023-06-11T13:07:04.838Z,29.98
2023-06-11T13:17:45.174Z,30.04
2023-06-11T13:20:13.861Z,29.43
2023-06-11T13:22:43.159Z,28.64
2023-06-11T13:25:11.281Z,28.15
2023-06-11T13:27:39.280Z,28.71
2023-06-11T13:30:11.383Z,29.05
2023-06-11T13:35:43.038Z,29.12
2023-06-11T13:41:29.678Z,28.60
2023-06-11T13:43:57.074Z,29.08
2023-06-11T13:46:30.895Z,28.73
2023-06-11T14:14:42.765Z,29.09
2023-06-11T14:28:20.455Z,29.62
2023-06-11T14:30:51.045Z,29.38
2023-06-11T14:33:20.426Z,29.54
2023-06-11T14:35:51.821Z,28.59
2023-06-11T14:38:19.353Z,29.39
2023-06-11T14:40:47.563Z,29.31
2023-06-11T14:43:15.657Z,29.57
2023-06-11T14:45:51.005Z,28.91
2023-06-11T14:48:45.068Z,27.95
2023-06-11T14:51:19.154Z,28.83
2023-06-11T14:53:47.904Z,29.18
2023-06-11T14:56:16.026Z,28.87
2023-06-11T14:58:43.063Z,29.32
2023-06-11T15:04:05.855Z,28.63
2023-06-11T15:06:38.107Z,27.40
2023-06-11T15:09:05.463Z,28.52
2023-06-11T15:11:33.089Z,28.60
2023-06-11T15:14:01.043Z,28.64
2023-06-11T15:16:29.355Z,28.33
2023-06-11T15:18:57.803Z,28.61
2023-06-11T15:21:25.108Z,28.70
2023-06-11T15:24:12.923Z,28.33
2023-06-11T15:26:45.736Z,27.54
2023-06-11T15:29:13.291Z,27.76
2023-06-11T15:31:42.544Z,27.40
2023-06-11T15:34:11.740Z,27.70
2023-06-11T15:37:04.793Z,28.04
2023-06-11T15:39:33.035Z,28.23
2023-06-11T15:42:02.060Z,28.06
2023-06-11T15:44:40.280Z,28.40
2023-06-11T15:47:13.534Z,28.11
2023-06-11T15:49:47.169Z,28.01
2023-06-11T15:52:15.442Z,28.06
2023-06-11T15:54:43.326Z,27.89
2023-06-11T15:57:42.077Z,28.02
2023-06-11T16:00:10.528Z,27.91
2023-06-11T16:02:43.642Z,26.78
2023-06-11T16:05:20.613Z,26.92
2023-06-11T16:07:54.136Z,26.06
2023-06-11T16:10:21.294Z,27.02
2023-06-11T16:12:49.476Z,26.68
2023-06-11T16:15:16.970Z,26.26
2023-06-11T16:17:47.873Z,26.80
2023-06-11T16:20:15.397Z,27.34
2023-06-11T16:22:44.018Z,27.34
2023-06-11T16:28:03.273Z,26.90
2023-06-11T16:30:35.464Z,26.87
2023-06-11T16:33:03.182Z,26.63
2023-06-11T16:35:31.994Z,27.19
2023-06-11T16:38:06.104Z,26.37
2023-06-11T16:40:33.409Z,26.94
2023-06-11T16:43:01.168Z,26.88
2023-06-11T16:45:31.356Z,26.41
2023-06-11T16:48:04.874Z,26.78
2023-06-11T16:50:33.010Z,26.20
2023-06-11T16:53:01.020Z,26.26
2023-06-11T16:55:32.995Z,26.18
2023-06-11T17:00:57.077Z,26.18
2023-06-11T17:03:30.428Z,26.35
2023-06-11T17:05:58.974Z,25.72
2023-06-11T17:08:27.117Z,26.22
2023-06-11T17:11:00.220Z,26.44
2023-06-11T17:13:58.078Z,26.41
2023-06-11T17:16:25.115Z,26.40
2023-06-11T17:19:03.591Z,26.29
2023-06-11T17:21:35.963Z,26.20
2023-06-11T17:24:07.181Z,25.84
2023-06-11T17:26:42.827Z,26.03
2023-06-11T17:29:11.244Z,25.85
2023-06-11T17:31:39.096Z,25.89
2023-06-11T17:34:07.003Z,25.33
2023-06-11T17:36:35.107Z,25.58
2023-06-11T17:39:03.042Z,25.50
2023-06-11T17:41:31.269Z,25.28
2023-06-11T17:44:04.103Z,25.16
2023-06-11T17:46:31.036Z,25.13
2023-06-11T17:48:59.062Z,24.18
2023-06-11T17:51:53.445Z,24.62
2023-06-11T17:54:21.049Z,24.51
2023-06-11T17:56:49.182Z,24.54
2023-06-11T17:59:17.292Z,24.61
2023-06-11T18:01:45.446Z,24.73
2023-06-11T18:04:13.140Z,24.60
2023-06-11T18:06:46.009Z,24.60
2023-06-11T18:09:13.716Z,24.41
2023-06-11T18:11:42.373Z,24.55
2023-06-11T18:14:11.041Z,24.33
2023-06-11T18:16:39.760Z,24.47
2023-06-11T18:19:07.101Z,24.32
2023-06-11T18:21:34.968Z,23.84
2023-06-11T18:24:03.172Z,23.92
2023-06-11T18:26:31.141Z,24.02
2023-06-11T18:28:59.129Z,23.72
2023-06-11T18:31:27.122Z,23.78
2023-06-11T18:33:55.286Z,23.90
2023-06-11T18:36:23.237Z,23.61
2023-06-11T18:38:51.051Z,23.62
2023-06-11T18:41:21.116Z,23.79
2023-06-11T18:43:49.121Z,23.63
2023-06-11T18:46:17.181Z,23.40
2023-06-11T18:48:49.482Z,23.33
2023-06-11T18:51:17.520Z,23.47
2023-06-11T18:53:45.049Z,23.41
2023-06-11T18:56:13.407Z,23.23
2023-06-11T18:58:41.297Z,23.22
2023-06-11T19:01:13.772Z,23.13
2023-06-11T19:06:33.034Z,22.61
2023-06-11T19:09:04.983Z,22.80
2023-06-11T19:11:32.977Z,22.93
2023-06-11T19:14:01.071Z,22.83
2023-06-11T19:24:10.732Z,22.48
2023-06-11T19:57:26.103Z,21.56
2023-06-11T20:35:38.133Z,20.71
2023-06-11T21:21:08.724Z,19.52
2023-06-11T21:24:11.315Z,19.55
2023-06-11T21:26:39.581Z,19.46
2023-06-11T21:31:58.325Z,19.55
2023-06-11T21:34:30.385Z,19.31
2023-06-11T21:36:58.989Z,19.51
2023-06-11T21:39:27.344Z,19.10
2023-06-11T21:41:55.202Z,19.00
2023-06-11T21:44:32.505Z,19.00
2023-06-11T21:47:06.618Z,19.15
2023-06-11T21:49:40.021Z,18.83
2023-06-11T21:52:17.645Z,18.87
2023-06-11T21:54:45.710Z,18.88
2023-06-11T21:57:19.153Z,18.80
2023-06-11T21:59:52.048Z,18.70
2023-06-11T22:02:19.062Z,18.83
2023-06-11T22:07:45.486Z,18.60
2023-06-11T22:10:24.075Z,18.59
2023-06-11T22:12:51.028Z,18.73
2023-06-11T22:15:44.570Z,18.63
2023-06-11T22:18:13.816Z,18.75
2023-06-11T22:20:48.070Z,18.44
2023-06-11T22:23:15.895Z,18.53
2023-06-11T22:25:48.085Z,18.65
2023-06-11T22:28:15.042Z,18.72
2023-06-11T22:30:56.410Z,18.49
2023-06-11T22:33:24.989Z,18.55
2023-06-11T22:35:53.008Z,18.24
2023-06-11T22:38:21.091Z,18.35
2023-06-11T22:40:54.009Z,18.45
2023-06-11T22:43:20.966Z,18.28
2023-06-11T22:45:54.096Z,18.03
2023-06-11T22:48:21.084Z,18.14
2023-06-11T22:51:20.711Z,18.21
2023-06-11T22:53:49.301Z,17.86
2023-06-11T22:56:17.271Z,17.84
2023-06-11T22:58:49.155Z,18.05
2023-06-11T23:01:17.597Z,17.66
2023-06-11T23:03:45.157Z,17.96
2023-06-11T23:06:46.339Z,17.74
2023-06-11T23:09:14.148Z,17.79
2023-06-11T23:11:48.049Z,17.77
2023-06-11T23:14:15.953Z,17.77
2023-06-11T23:17:15.364Z,17.67
2023-06-11T23:19:47.026Z,17.86
2023-06-11T23:22:19.329Z,17.57
2023-06-11T23:24:49.241Z,17.62
2023-06-11T23:30:19.043Z,17.76
2023-06-11T23:32:48.343Z,17.76
2023-06-11T23:35:19.498Z,17.69
2023-06-11T23:37:51.440Z,17.55
2023-06-11T23:40:19.891Z,17.77
2023-06-11T23:42:52.090Z,17.76
2023-06-11T23:45:19.017Z,17.56
2023-06-11T23:47:46.987Z,17.63
2023-06-11T23:50:19.092Z,17.24
2023-06-11T23:53:11.419Z,17.63
2023-06-11T23:55:45.028Z,17.35
2023-06-11T23:58:20.965Z,17.36
